Time;durP1;ratioP1;P1;durP2;ratioP2;P2;SDS_P1;SDS_P2;PMS_P1;PMS_P2;Temp;Humidity;BMP_temperature;BMP_pressure;BME280_temperature;BME280_humidity;BME280_pressure;Samples;Min_cycle;Max_cycle;Signal;HPM_P1;HPM_P2
2023/05/21 00:01:44;;;;;;;;;;;;;;;;;;5072383;28;19933;-78
2023/05/21 00:04:12;;;;;;;;;;;;;;;;;;5066483;28;19947;-78
2023/05/21 00:06:39;;;;;;;;;;;;;;;;;;5060237;28;19920;-77
2023/05/21 00:09:12;;;;;;;;;;;;;;;;;;5061688;28;19929;-78
2023/05/21 00:11:45;;;;;;;;;;;;;;;;;;5059516;28;19924;-78
2023/05/21 00:14:12;;;;;;;;;;;;;;;;;;5066709;28;19920;-77
2023/05/21 00:16:40;;;;;;;;;;;;;;;;;;5066018;28;19975;-78
2023/05/21 00:19:09;;;;;;;;;;;;;;;;;;5060060;28;19931;-79
2023/05/21 00:21:37;;;;;;;;;;;;;;;;;;5065943;28;19935;-78
2023/05/21 00:24:04;;;;;;;;;;;;;;;;;;5058054;28;19928;-79
2023/05/21 00:26:32;;;;;;;;;;;;;;;;;;5066412;28;19932;-79
2023/05/21 00:29:00;;;;;;;;;;;;;;;;;;5059374;28;20476;-79
2023/05/21 00:31:27;;;;;;;;;;;;;;;;;;5076796;28;19943;-78
2023/05/21 00:33:55;;;;;;;;;;;;;;;;;;5072605;28;19921;-77
2023/05/21 00:36:23;;;;;;;;;;;;;;;;;;5056374;28;19921;-77
2023/05/21 00:38:50;;;;;;;;;;;;;;;;;;5060459;28;21504;-78
2023/05/21 00:41:18;;;;;;;;;;;;;;;;;;5065455;28;19924;-80
2023/05/21 00:43:45;;;;;;;;;;;;;;;;;;5066926;28;19931;-81
2023/05/21 00:46:15;;;;;;;;;;;;;;;;;;5061933;28;19932;-78
2023/05/21 00:48:42;;;;;;;;;;;;;;;;;;5073188;28;19920;-81
2023/05/21 00:51:15;;;;;;;;;;;;;;;;;;5073620;28;20408;-78
2023/05/21 00:53:42;;;;;;;;;;;;;;;;;;5074658;28;20324;-79
2023/05/21 00:56:10;;;;;;;;;;;;;;;;;;5060003;28;19931;-78
2023/05/21 00:58:38;;;;;;;;;;;;;;;;;;5076987;28;19928;-77
2023/05/21 01:01:05;;;;;;;;;;;;;;;;;;5072960;28;19932;-78
2023/05/21 01:03:37;;;;;;;;;;;;;;;;;;5056837;28;20170;-77
2023/05/21 01:06:09;;;;;;;;;;;;;;;;;;5055255;28;19959;-78
2023/05/21 01:08:42;;;;;;;;;;;;;;;;;;5056232;28;19931;-78
2023/05/21 01:11:10;;;;;;;;;;;;;;;;;;5061623;28;20262;-79
2023/05/21 01:13:38;;;;;;;;;;;;;;;;;;5057802;28;20584;-78
2023/05/21 01:16:07;;;;;;;;;;;;;;;;;;5058652;28;19920;-78
2023/05/21 01:18:36;;;;;;;;;;;;;;;;;;5058593;28;19931;-79
2023/05/21 01:21:06;;;;;;;;;;;;;;;;;;5058292;28;20280;-77
2023/05/21 01:23:33;;;;;;;;;;;;;;;;;;5073728;28;19920;-78
2023/05/21 01:26:06;;;;;;;;;;;;;;;;;;5058960;28;19928;-78
2023/05/21 01:28:33;;;;;;;;;;;;;;;;;;5075045;28;19924;-78
2023/05/21 01:31:06;;;;;;;;;;;;;;;;;;5053855;28;19931;-77
2023/05/21 01:33:34;;;;;;;;;;;;;;;;;;5073696;28;19939;-78
2023/05/21 01:36:06;;;;;;;;;;;;;;;;;;5059900;28;19925;-77
2023/05/21 01:38:34;;;;;;;;;;;;;;;;;;5072360;28;19927;-78
2023/05/21 01:41:02;;;;;;;;;;;;;;;;;;5057149;28;19929;-77
2023/05/21 01:43:30;;;;;;;;;;;;;;;;;;5057810;28;19924;-77
2023/05/21 01:46:02;;;;;;;;;;;;;;;;;;5074260;28;20849;-80
2023/05/21 01:48:30;;;;;;;;;;;;;;;;;;5056488;28;19928;-79
2023/05/21 01:51:02;;;;;;;;;;;;;;;;;;5067043;28;19931;-78
2023/05/21 01:53:37;;;;;;;;;;;;;;;;;;5065084;28;20391;-78
2023/05/21 01:56:05;;;;;;;;;;;;;;;;;;5071638;28;20381;-78
2023/05/21 01:58:32;;;;;;;;;;;;;;;;;;5056129;28;19931;-79
2023/05/21 02:01:01;;;;;;;;;;;;;;;;;;5073715;28;19987;-78
2023/05/21 02:03:29;;;;;;;;;;;;;;;;;;5064868;28;20284;-77
2023/05/21 02:05:57;;;;;;;;;;;;;;;;;;5064249;28;19925;-76
2023/05/21 02:08:26;;;;;;;;;;;;;;;;;;5065156;28;19924;-79
2023/05/21 02:10:54;;;;;;;;;;;;;;;;;;5058727;28;19925;-79
2023/05/21 02:13:23;;;;;;;;;;;;;;;;;;5063339;28;21507;-77
2023/05/21 02:15:53;;;;;;;;;;;;;;;;;;5064852;28;19924;-76
2023/05/21 02:18:20;;;;;;;;;;;;;;;;;;5062289;28;19924;-79
2023/05/21 02:20:53;;;;;;;;;;;;;;;;;;5059027;28;20289;-77
2023/05/21 02:23:20;;;;;;;;;;;;;;;;;;5061147;28;20376;-78
2023/05/21 02:25:48;;;;;;;;;;;;;;;;;;5067135;28;19920;-79
2023/05/21 02:28:16;;;;;;;;;;;;;;;;;;5061267;28;19921;-77
2023/05/21 02:30:43;;;;;;;;;;;;;;;;;;5076964;28;20373;-78
2023/05/21 02:33:13;;;;;;;;;;;;;;;;;;5077603;28;19947;-78
2023/05/21 02:35:40;;;;;;;;;;;;;;;;;;5068912;28;19931;-77
2023/05/21 02:38:09;;;;;;;;;;;;;;;;;;5059231;28;20041;-78
2023/05/21 02:40:36;;;;;;;;;;;;;;;;;;5060093;28;19929;-78
2023/05/21 02:43:04;;;;;;;;;;;;;;;;;;5069261;28;20281;-76
2023/05/21 02:45:32;;;;;;;;;;;;;;;;;;5061228;28;20293;-78
2023/05/21 02:47:59;;;;;;;;;;;;;;;;;;5066911;28;19931;-78
2023/05/21 02:50:30;;;;;;;;;;;;;;;;;;5058247;28;19935;-77
2023/05/21 02:52:59;;;;;;;;;;;;;;;;;;5060437;28;19928;-77
2023/05/21 02:55:27;;;;;;;;;;;;;;;;;;5068281;28;20366;-77
2023/05/21 02:57:55;;;;;;;;;;;;;;;;;;5068990;28;19921;-76
2023/05/21 03:00:27;;;;;;;;;;;;;;;;;;5066724;28;19920;-77
2023/05/21 03:02:55;;;;;;;;;;;;;;;;;;5077040;28;19924;-77
2023/05/21 03:05:23;;;;;;;;;;;;;;;;;;5066880;28;19920;-78
2023/05/21 03:07:52;;;;;;;;;;;;;;;;;;5078935;28;20400;-76
2023/05/21 03:10:19;;;;;;;;;;;;;;;;;;5074843;28;19924;-76
2023/05/21 03:12:47;;;;;;;;;;;;;;;;;;5065725;28;19932;-77
2023/05/21 03:15:14;;;;;;;;;;;;;;;;;;5066575;28;20364;-77
2023/05/21 03:17:43;;;;;;;;;;;;;;;;;;5075749;28;19920;-76
2023/05/21 03:20:14;;;;;;;;;;;;;;;;;;5058293;28;20394;-77
2023/05/21 03:22:42;;;;;;;;;;;;;;;;;;5061742;28;20376;-75
2023/05/21 03:25:10;;;;;;;;;;;;;;;;;;5057209;28;19924;-76
2023/05/21 03:27:37;;;;;;;;;;;;;;;;;;5060136;28;20383;-77
2023/05/21 03:30:09;;;;;;;;;;;;;;;;;;5054546;28;19920;-75
2023/05/21 03:32:50;;;;;;;;;;;;;;;;;;5067160;28;19935;-76
2023/05/21 03:35:17;;;;;;;;;;;;;;;;;;5066618;28;19927;-77
2023/05/21 03:37:50;;;;;;;;;;;;;;;;;;5066286;28;19924;-78
2023/05/21 03:40:22;;;;;;;;;;;;;;;;;;5056643;28;20397;-76
2023/05/21 03:42:50;;;;;;;;;;;;;;;;;;5074886;28;19931;-78
2023/05/21 03:45:17;;;;;;;;;;;;;;;;;;5058061;28;20296;-77
2023/05/21 03:48:25;;;;;;;;;;;;;;;;;;5025635;28;19925;-77
2023/05/21 03:50:58;;;;;;;;;;;;;;;;;;5066956;28;19927;-77
2023/05/21 03:53:30;;;;;;;;;;;;;;;;;;5058038;28;19920;-78
2023/05/21 03:55:58;;;;;;;;;;;;;;;;;;5065969;28;19928;-77
2023/05/21 03:58:31;;;;;;;;;;;;;;;;;;5074356;28;19925;-78
2023/05/21 04:01:00;;;;;;;;;;;;;;;;;;5057432;28;19920;-77
2023/05/21 04:03:28;;;;;;;;;;;;;;;;;;5064060;28;20441;-81
2023/05/21 04:05:56;;;;;;;;;;;;;;;;;;5066947;28;19931;-81
2023/05/21 04:08:28;;;;;;;;;;;;;;;;;;5060652;28;19925;-80
2023/05/21 04:11:01;;;;;;;;;;;;;;;;;;5056254;28;19925;-80
2023/05/21 04:13:35;;;;;;;;;;;;;;;;;;5066575;28;19920;-77
2023/05/21 04:16:03;;;;;;;;;;;;;;;;;;5059294;28;19945;-78
2023/05/21 04:18:36;;;;;;;;;;;;;;;;;;5055579;28;20405;-79
2023/05/21 04:21:04;;;;;;;;;;;;;;;;;;5063923;28;19925;-78
2023/05/21 04:23:36;;;;;;;;;;;;;;;;;;5066582;28;20702;-78
2023/05/21 04:26:11;;;;;;;;;;;;;;;;;;5072837;28;19931;-79
2023/05/21 04:28:41;;;;;;;;;;;;;;;;;;5062690;28;19927;-77
2023/05/21 04:31:14;;;;;;;;;;;;;;;;;;5060137;28;19931;-78
2023/05/21 04:33:44;;;;;;;;;;;;;;;;;;5064827;28;19924;-80
2023/05/21 04:36:17;;;;;;;;;;;;;;;;;;5059025;28;19924;-77
2023/05/21 04:38:44;;;;;;;;;;;;;;;;;;5074084;28;20284;-79
2023/05/21 04:41:20;;;;;;;;;;;;;;;;;;5057089;28;19924;-77
2023/05/21 04:43:47;;;;;;;;;;;;;;;;;;5064946;28;19928;-79
2023/05/21 04:46:20;;;;;;;;;;;;;;;;;;5058313;28;19955;-78
2023/05/21 04:48:49;;;;;;;;;;;;;;;;;;5075397;28;20262;-78
2023/05/21 04:51:23;;;;;;;;;;;;;;;;;;5066635;28;19921;-79
2023/05/21 04:53:56;;;;;;;;;;;;;;;;;;5058805;28;19920;-79
2023/05/21 04:56:25;;;;;;;;;;;;;;;;;;5066209;28;20335;-79
2023/05/21 04:58:58;;;;;;;;;;;;;;;;;;5072813;28;19928;-78
2023/05/21 05:01:28;;;;;;;;;;;;;;;;;;5056512;28;19924;-79
2023/05/21 05:03:55;;;;;;;;;;;;;;;;;;5059463;28;19925;-80
2023/05/21 05:06:24;;;;;;;;;;;;;;;;;;5073225;28;19929;-78
2023/05/21 05:08:52;;;;;;;;;;;;;;;;;;5065248;28;20366;-78
2023/05/21 05:11:21;;;;;;;;;;;;;;;;;;5071480;28;19931;-77
2023/05/21 05:13:48;;;;;;;;;;;;;;;;;;5056274;28;19924;-76
2023/05/21 05:16:17;;;;;;;;;;;;;;;;;;5071703;28;20373;-79
2023/05/21 05:18:44;;;;;;;;;;;;;;;;;;5064742;28;19931;-76
2023/05/21 05:21:12;;;;;;;;;;;;;;;;;;5065483;28;19932;-77
2023/05/21 05:23:40;;;;;;;;;;;;;;;;;;5064081;28;20292;-76
2023/05/21 05:26:08;;;;;;;;;;;;;;;;;;5060764;28;19920;-79
2023/05/21 05:28:35;;;;;;;;;;;;;;;;;;5074183;28;19932;-78
2023/05/21 05:31:08;;;;;;;;;;;;;;;;;;5056145;28;20309;-77
2023/05/21 05:33:42;;;;;;;;;;;;;;;;;;5063138;28;19924;-79
2023/05/21 05:36:10;;;;;;;;;;;;;;;;;;5077135;28;19931;-78
2023/05/21 05:38:43;;;;;;;;;;;;;;;;;;5054198;28;19943;-78
2023/05/21 05:41:16;;;;;;;;;;;;;;;;;;5063850;28;20273;-78
2023/05/21 05:43:44;;;;;;;;;;;;;;;;;;5063736;28;19920;-77
2023/05/21 05:46:11;;;;;;;;;;;;;;;;;;5071855;28;19921;-76
2023/05/21 05:48:39;;;;;;;;;;;;;;;;;;5057222;28;19936;-79
2023/05/21 05:51:06;;;;;;;;;;;;;;;;;;5074278;28;19932;-78
2023/05/21 05:53:39;;;;;;;;;;;;;;;;;;5072044;28;19935;-80
2023/05/21 05:56:06;;;;;;;;;;;;;;;;;;5062272;28;19925;-77
2023/05/21 05:58:34;;;;;;;;;;;;;;;;;;5072214;28;20315;-77
2023/05/21 06:01:11;;;;;;;;;;;;;;;;;;5074575;28;20274;-78
2023/05/21 06:03:39;;;;;;;;;;;;;;;;;;5070609;28;19931;-78
2023/05/21 06:06:11;;;;;;;;;;;;;;;;;;5054667;28;20288;-77
2023/05/21 06:08:45;;;;;;;;;;;;;;;;;;5062385;28;20292;-77
2023/05/21 06:11:15;;;;;;;;;;;;;;;;;;5052944;28;20373;-78
2023/05/21 06:13:43;;;;;;;;;;;;;;;;;;5055877;28;19932;-77
2023/05/21 06:16:11;;;;;;;;;;;;;;;;;;5053030;28;19924;-77
2023/05/21 06:18:38;;;;;;;;;;;;;;;;;;5058901;28;19920;-76
2023/05/21 06:21:11;;;;;;;;;;;;;;;;;;5063151;28;19924;-78
2023/05/21 06:23:39;;;;;;;;;;;;;;;;;;5061137;28;19932;-78
2023/05/21 06:26:06;;;;;;;;;;;;;;;;;;5054224;28;19924;-77
2023/05/21 06:28:39;;;;;;;;;;;;;;;;;;5061387;28;19928;-77
2023/05/21 06:31:13;;;;;;;;;;;;;;;;;;5061569;28;20392;-79
2023/05/21 06:33:42;;;;;;;;;;;;;;;;;;5062913;28;19925;-80
2023/05/21 06:36:10;;;;;;;;;;;;;;;;;;5053770;28;19920;-78
2023/05/21 06:38:39;;;;;;;;;;;;;;;;;;5063368;28;19920;-78
2023/05/21 06:41:12;;;;;;;;;;;;;;;;;;5053303;28;19932;-77
2023/05/21 06:43:49;;;;;;;;;;;;;;;;;;5062435;28;19920;-77
2023/05/21 06:46:35;;;;;;;;;;;;;;;;;;5056346;28;19927;-78
2023/05/21 06:49:06;;;;;;;;;;;;;;;;;;5058683;28;19929;-77
2023/05/21 06:51:39;;;;;;;;;;;;;;;;;;5063113;28;19928;-78
2023/05/21 06:54:07;;;;;;;;;;;;;;;;;;5051041;28;19920;-77
2023/05/21 06:56:36;;;;;;;;;;;;;;;;;;5052165;28;19928;-80
2023/05/21 06:59:03;;;;;;;;;;;;;;;;;;5060141;28;19924;-80
2023/05/21 07:01:33;;;;;;;;;;;;;;;;;;5054566;28;20661;-78
2023/05/21 07:04:01;;;;;;;;;;;;;;;;;;5077378;28;20354;-77
2023/05/21 07:06:30;;;;;;;;;;;;;;;;;;5072421;28;19921;-78
2023/05/21 07:08:58;;;;;;;;;;;;;;;;;;5072313;28;19920;-77
2023/05/21 07:11:27;;;;;;;;;;;;;;;;;;5068132;28;19920;-77
2023/05/21 07:14:01;;;;;;;;;;;;;;;;;;5079213;28;19921;-78
2023/05/21 07:16:30;;;;;;;;;;;;;;;;;;5065235;28;19920;-78
2023/05/21 07:18:58;;;;;;;;;;;;;;;;;;5063651;28;20297;-80
2023/05/21 07:21:26;;;;;;;;;;;;;;;;;;5067128;28;19921;-78
2023/05/21 07:23:53;;;;;;;;;;;;;;;;;;5065585;28;19928;-78
2023/05/21 07:26:21;;;;;;;;;;;;;;;;;;5067565;28;19928;-79
2023/05/21 07:28:49;;;;;;;;;;;;;;;;;;5073947;28;19927;-82
2023/05/21 07:31:16;;;;;;;;;;;;;;;;;;5057293;28;19928;-78
2023/05/21 07:33:47;;;;;;;;;;;;;;;;;;5071200;28;19935;-77
2023/05/21 07:36:24;;;;;;;;;;;;;;;;;;5063635;28;19921;-79
2023/05/21 07:38:53;;;;;;;;;;;;;;;;;;5055777;28;19924;-78
2023/05/21 07:41:26;;;;;;;;;;;;;;;;;;5062982;28;19920;-79
2023/05/21 07:43:53;;;;;;;;;;;;;;;;;;5075508;28;19931;-79
2023/05/21 07:46:21;;;;;;;;;;;;;;;;;;5057269;28;19929;-79
2023/05/21 07:48:56;;;;;;;;;;;;;;;;;;5055091;28;19924;-79
2023/05/21 07:51:29;;;;;;;;;;;;;;;;;;5062658;28;19928;-81
2023/05/21 07:53:57;;;;;;;;;;;;;;;;;;5058716;28;19927;-82
2023/05/21 07:56:31;;;;;;;;;;;;;;;;;;5063690;28;19928;-81
2023/05/21 07:58:59;;;;;;;;;;;;;;;;;;5071691;28;19935;-82
2023/05/21 08:01:31;;;;;;;;;;;;;;;;;;5074256;28;19924;-81
2023/05/21 08:04:04;;;;;;;;;;;;;;;;;;5066822;28;20811;-82
2023/05/21 08:06:39;;;;;;;;;;;;;;;;;;5064988;28;19940;-81
2023/05/21 08:09:12;;;;;;;;;;;;;;;;;;5062036;28;19925;-81
2023/05/21 08:11:40;;;;;;;;;;;;;;;;;;5063897;28;20525;-81
2023/05/21 08:14:08;;;;;;;;;;;;;;;;;;5072801;28;19924;-78
2023/05/21 08:16:42;;;;;;;;;;;;;;;;;;5057987;28;19928;-79
2023/05/21 08:19:09;;;;;;;;;;;;;;;;;;5074823;28;19931;-78
2023/05/21 08:21:37;;;;;;;;;;;;;;;;;;5056442;28;19928;-78
2023/05/21 08:24:10;;;;;;;;;;;;;;;;;;5057061;28;19928;-82
2023/05/21 08:26:38;;;;;;;;;;;;;;;;;;5039682;28;19929;-78
2023/05/21 08:29:05;;;;;;;;;;;;;;;;;;5046433;28;20348;-80
2023/05/21 08:31:33;;;;;;;;;;;;;;;;;;5032514;28;19928;-77
2023/05/21 08:34:06;;;;;;;;;;;;;;;;;;5038072;28;19928;-80
2023/05/21 08:36:42;;;;;;;;;;;;;;;;;;5032387;28;19928;-80
2023/05/21 08:39:22;;;;;;;;;;;;;;;;;;5041595;28;19943;-79
2023/05/21 08:41:50;;;;;;;;;;;;;;;;;;5038677;28;19928;-81
2023/05/21 08:44:18;;;;;;;;;;;;;;;;;;5048111;28;19929;-83
2023/05/21 08:46:45;;;;;;;;;;;;;;;;;;5035403;28;19928;-81
2023/05/21 08:49:14;;;;;;;;;;;;;;;;;;5037853;28;19928;-80
2023/05/21 08:51:43;;;;;;;;;;;;;;;;;;5041744;28;19928;-82
2023/05/21 08:54:12;;;;;;;;;;;;;;;;;;5047152;28;19931;-80
2023/05/21 08:56:44;;;;;;;;;;;;;;;;;;5053305;28;19924;-81
2023/05/21 08:59:17;;;;;;;;;;;;;;;;;;5036841;28;20536;-80
2023/05/21 09:01:44;;;;;;;;;;;;;;;;;;5036156;28;19929;-79
2023/05/21 09:04:26;;;;;;;;;;;;;;;;;;5037691;28;19928;-78
2023/05/21 09:07:01;;;;;;;;;;;;;;;;;;5039634;28;20369;-79
2023/05/21 09:10:00;;;;;;;;;;;;;;;;;;5038583;28;19924;-78
2023/05/21 09:12:32;;;;;;;;;;;;;;;;;;5036745;28;19925;-80
2023/05/21 09:15:00;;;;;;;;;;;;;;;;;;5040445;28;20553;-82
2023/05/21 09:17:35;;;;;;;;;;;;;;;;;;5030982;28;19939;-80
2023/05/21 09:20:18;;;;;;;;;;;;;;;;;;5039488;28;20369;-79
2023/05/21 09:22:54;;;;;;;;;;;;;;;;;;5043900;28;19920;-80
2023/05/21 09:25:21;;;;;;;;;;;;;;;;;;5029999;28;19928;-79
2023/05/21 09:27:49;;;;;;;;;;;;;;;;;;5038935;28;20385;-81
2023/05/21 09:30:22;;;;;;;;;;;;;;;;;;5046393;28;19927;-79
2023/05/21 09:32:49;;;;;;;;;;;;;;;;;;5041809;28;19943;-84
2023/05/21 09:35:17;;;;;;;;;;;;;;;;;;5040934;28;19936;-79
2023/05/21 09:37:44;;;;;;;;;;;;;;;;;;5033489;28;19925;-79
2023/05/21 09:40:17;;;;;;;;;;;;;;;;;;5035841;28;20650;-78
2023/05/21 09:42:45;;;;;;;;;;;;;;;;;;5035843;28;20007;-81
2023/05/21 09:45:13;;;;;;;;;;;;;;;;;;5035580;28;19935;-81
2023/05/21 09:47:41;;;;;;;;;;;;;;;;;;5034801;28;19936;-78
2023/05/21 09:50:08;;;;;;;;;;;;;;;;;;5040222;28;19936;-79
2023/05/21 09:52:36;;;;;;;;;;;;;;;;;;5040337;28;20056;-78
2023/05/21 09:55:08;;;;;;;;;;;;;;;;;;5042003;28;19928;-80
2023/05/21 09:57:42;;;;;;;;;;;;;;;;;;5037287;28;20698;-80
2023/05/21 10:00:11;;;;;;;;;;;;;;;;;;5034154;28;19971;-80
2023/05/21 10:02:40;;;;;;;;;;;;;;;;;;5037266;28;19928;-79
2023/05/21 10:05:07;;;;;;;;;;;;;;;;;;5038955;28;19928;-78
2023/05/21 10:07:35;;;;;;;;;;;;;;;;;;5037401;28;21753;-78
2023/05/21 10:10:08;;;;;;;;;;;;;;;;;;5035088;28;20554;-81
2023/05/21 10:12:35;;;;;;;;;;;;;;;;;;5033363;28;19924;-80
2023/05/21 10:15:03;;;;;;;;;;;;;;;;;;5035326;28;20554;-80
2023/05/21 10:17:35;;;;;;;;;;;;;;;;;;5038889;28;20662;-76
2023/05/21 10:20:09;;;;;;;;;;;;;;;;;;5036890;28;19928;-79
2023/05/21 10:22:41;;;;;;;;;;;;;;;;;;5037953;28;19928;-82
2023/05/21 10:25:14;;;;;;;;;;;;;;;;;;5027520;28;19928;-78
2023/05/21 10:27:42;;;;;;;;;;;;;;;;;;5041052;28;19924;-79
2023/05/21 10:30:09;;;;;;;;;;;;;;;;;;5039695;28;20532;-77
2023/05/21 10:32:37;;;;;;;;;;;;;;;;;;5046303;28;20529;-81
2023/05/21 10:35:04;;;;;;;;;;;;;;;;;;5044783;28;19936;-79
2023/05/21 10:37:37;;;;;;;;;;;;;;;;;;5040798;28;20586;-79
2023/05/21 10:40:10;;;;;;;;;;;;;;;;;;5045052;28;19929;-78
2023/05/21 10:42:37;;;;;;;;;;;;;;;;;;5044943;28;19928;-77
2023/05/21 10:45:10;;;;;;;;;;;;;;;;;;5045298;28;19939;-77
2023/05/21 10:47:43;;;;;;;;;;;;;;;;;;5043157;28;20428;-79
2023/05/21 10:50:15;;;;;;;;;;;;;;;;;;5041420;28;19928;-79
2023/05/21 10:52:48;;;;;;;;;;;;;;;;;;5043611;28;19929;-79
2023/05/21 10:55:15;;;;;;;;;;;;;;;;;;5041208;28;19928;-80
2023/05/21 10:57:43;;;;;;;;;;;;;;;;;;5039282;28;20787;-79
2023/05/21 11:00:15;;;;;;;;;;;;;;;;;;5038306;28;19936;-75
2023/05/21 11:02:44;;;;;;;;;;;;;;;;;;5037922;28;20006;-78
2023/05/21 11:05:11;;;;;;;;;;;;;;;;;;5036746;28;19935;-79
2023/05/21 11:07:39;;;;;;;;;;;;;;;;;;5042575;28;20146;-77
2023/05/21 11:10:07;;;;;;;;;;;;;;;;;;5043533;28;19928;-78
2023/05/21 11:12:34;;;;;;;;;;;;;;;;;;5047049;28;19928;-78
2023/05/21 11:15:02;;;;;;;;;;;;;;;;;;5044767;28;19929;-79
2023/05/21 11:17:34;;;;;;;;;;;;;;;;;;5042757;28;20389;-81
2023/05/21 11:20:07;;;;;;;;;;;;;;;;;;5037962;28;19928;-79
2023/05/21 11:22:34;;;;;;;;;;;;;;;;;;5035807;28;19928;-79
2023/05/21 11:25:02;;;;;;;;;;;;;;;;;;5038515;28;19929;-77
2023/05/21 11:27:35;;;;;;;;;;;;;;;;;;5023616;28;19924;-79
2023/05/21 11:30:02;;;;;;;;;;;;;;;;;;5040337;28;20407;-77
2023/05/21 11:32:30;;;;;;;;;;;;;;;;;;5039259;28;19926;-79
2023/05/21 11:35:02;;;;;;;;;;;;;;;;;;5043345;28;19936;-81
2023/05/21 11:37:36;;;;;;;;;;;;;;;;;;5043404;28;19936;-79
2023/05/21 11:40:09;;;;;;;;;;;;;;;;;;5039638;28;19928;-80
2023/05/21 11:42:37;;;;;;;;;;;;;;;;;;5038975;28;19925;-79
2023/05/21 11:45:04;;;;;;;;;;;;;;;;;;5036905;28;20080;-78
2023/05/21 11:47:37;;;;;;;;;;;;;;;;;;5037301;28;19928;-78
2023/05/21 11:50:09;;;;;;;;;;;;;;;;;;5036985;28;19924;-80
2023/05/21 11:52:37;;;;;;;;;;;;;;;;;;5040206;28;19929;-77
2023/05/21 11:55:10;;;;;;;;;;;;;;;;;;5038369;28;19929;-79
2023/05/21 11:57:37;;;;;;;;;;;;;;;;;;5043576;28;19935;-74
2023/05/21 12:00:12;;;;;;;;;;;;;;;;;;5034509;28;20280;-79
2023/05/21 12:02:42;;;;;;;;;;;;;;;;;;5034303;28;20525;-78
2023/05/21 12:05:16;;;;;;;;;;;;;;;;;;5038362;28;19940;-77
2023/05/21 12:07:44;;;;;;;;;;;;;;;;;;5040838;28;20339;-80
2023/05/21 12:10:16;;;;;;;;;;;;;;;;;;5033299;28;19935;-79
2023/05/21 12:12:50;;;;;;;;;;;;;;;;;;5036814;28;19935;-78
2023/05/21 12:15:17;;;;;;;;;;;;;;;;;;5038626;28;19929;-77
2023/05/21 12:17:51;;;;;;;;;;;;;;;;;;5057621;28;20601;-78
2023/05/21 12:20:19;;;;;;;;;;;;;;;;;;5037014;28;19936;-78
2023/05/21 12:22:46;;;;;;;;;;;;;;;;;;5040871;28;19928;-80
2023/05/21 12:25:19;;;;;;;;;;;;;;;;;;5034964;28;21123;-79
2023/05/21 12:27:47;;;;;;;;;;;;;;;;;;5027383;28;19936;-79
2023/05/21 12:30:14;;;;;;;;;;;;;;;;;;5034693;28;19936;-80
2023/05/21 12:32:43;;;;;;;;;;;;;;;;;;5036608;28;20038;-80
2023/05/21 12:35:11;;;;;;;;;;;;;;;;;;5034984;28;19967;-79
2023/05/21 12:37:38;;;;;;;;;;;;;;;;;;5034060;28;19928;-81
2023/05/21 12:40:06;;;;;;;;;;;;;;;;;;5043932;28;19939;-79
2023/05/21 12:42:34;;;;;;;;;;;;;;;;;;5041861;28;20304;-81
2023/05/21 12:45:02;;;;;;;;;;;;;;;;;;5034632;28;19928;-79
2023/05/21 12:47:34;;;;;;;;;;;;;;;;;;5033001;28;19929;-81
2023/05/21 12:50:02;;;;;;;;;;;;;;;;;;5031217;28;19947;-80
2023/05/21 12:52:30;;;;;;;;;;;;;;;;;;5034645;28;19936;-79
2023/05/21 12:54:58;;;;;;;;;;;;;;;;;;5041706;28;19928;-79
2023/05/21 12:57:26;;;;;;;;;;;;;;;;;;5037359;28;19928;-79
2023/05/21 12:59:59;;;;;;;;;;;;;;;;;;5045400;28;20395;-80
2023/05/21 13:02:27;;;;;;;;;;;;;;;;;;5043621;28;19936;-79
2023/05/21 13:04:55;;;;;;;;;;;;;;;;;;5051925;28;20300;-77
2023/05/21 13:07:22;;;;;;;;;;;;;;;;;;5035567;28;19935;-80
2023/05/21 13:09:52;;;;;;;;;;;;;;;;;;5035254;28;19932;-78
2023/05/21 13:12:20;;;;;;;;;;;;;;;;;;5042402;28;20538;-80
2023/05/21 13:14:52;;;;;;;;;;;;;;;;;;5048925;28;19939;-80
2023/05/21 13:17:20;;;;;;;;;;;;;;;;;;5039442;28;19947;-81
2023/05/21 13:19:47;;;;;;;;;;;;;;;;;;5036676;28;20413;-78
2023/05/21 13:22:15;;;;;;;;;;;;;;;;;;5037699;28;19931;-79
2023/05/21 13:24:43;;;;;;;;;;;;;;;;;;5035984;28;19929;-79
2023/05/21 13:27:10;;;;;;;;;;;;;;;;;;5025555;28;20741;-79
2023/05/21 13:29:40;;;;;;;;;;;;;;;;;;5036797;28;19929;-78
2023/05/21 13:32:08;;;;;;;;;;;;;;;;;;5035518;28;20443;-77
2023/05/21 13:34:35;;;;;;;;;;;;;;;;;;5032026;28;19929;-78
2023/05/21 13:37:08;;;;;;;;;;;;;;;;;;5041276;28;20356;-76
2023/05/21 13:39:40;;;;;;;;;;;;;;;;;;5035939;28;19932;-78
2023/05/21 13:42:13;;;;;;;;;;;;;;;;;;5037510;28;19928;-77
2023/05/21 13:44:45;;;;;;;;;;;;;;;;;;5039401;28;19951;-79
2023/05/21 13:47:18;;;;;;;;;;;;;;;;;;5035866;28;19928;-79
2023/05/21 13:49:45;;;;;;;;;;;;;;;;;;5033070;28;19951;-79
2023/05/21 13:52:13;;;;;;;;;;;;;;;;;;5036632;28;19928;-79
2023/05/21 13:54:45;;;;;;;;;;;;;;;;;;5040457;28;19950;-79
2023/05/21 13:57:13;;;;;;;;;;;;;;;;;;5040748;28;19928;-79
2023/05/21 13:59:41;;;;;;;;;;;;;;;;;;5043482;28;20412;-79
2023/05/21 14:02:08;;;;;;;;;;;;;;;;;;5031901;28;19929;-80
2023/05/21 14:04:36;;;;;;;;;;;;;;;;;;5035380;28;20546;-80
2023/05/21 14:07:03;;;;;;;;;;;;;;;;;;5041817;28;19928;-79
2023/05/21 14:09:36;;;;;;;;;;;;;;;;;;5041751;28;20593;-80
2023/05/21 14:12:04;;;;;;;;;;;;;;;;;;5031849;28;20393;-80
2023/05/21 14:14:36;;;;;;;;;;;;;;;;;;5042829;28;19935;-79
2023/05/21 14:17:04;;;;;;;;;;;;;;;;;;5034401;28;20469;-78
2023/05/21 14:19:36;;;;;;;;;;;;;;;;;;5042208;28;20312;-79
2023/05/21 14:22:04;;;;;;;;;;;;;;;;;;5035876;28;19944;-80
2023/05/21 14:24:31;;;;;;;;;;;;;;;;;;5033099;28;19929;-80
2023/05/21 14:26:59;;;;;;;;;;;;;;;;;;5025211;28;19935;-79
2023/05/21 14:29:26;;;;;;;;;;;;;;;;;;5036079;28;21435;-79
2023/05/21 14:31:59;;;;;;;;;;;;;;;;;;5056788;28;19936;-78
2023/05/21 14:34:26;;;;;;;;;;;;;;;;;;5037298;28;19929;-77
2023/05/21 14:36:54;;;;;;;;;;;;;;;;;;5037344;28;19928;-76
2023/05/21 14:39:21;;;;;;;;;;;;;;;;;;5032464;28;19929;-79
2023/05/21 14:41:54;;;;;;;;;;;;;;;;;;5034548;28;20391;-79
2023/05/21 14:44:22;;;;;;;;;;;;;;;;;;5045904;28;19928;-78
2023/05/21 14:46:54;;;;;;;;;;;;;;;;;;5039468;28;19928;-77
2023/05/21 14:49:27;;;;;;;;;;;;;;;;;;5052193;28;19931;-80
2023/05/21 14:51:59;;;;;;;;;;;;;;;;;;5043571;28;19920;-78
2023/05/21 14:54:32;;;;;;;;;;;;;;;;;;5041318;28;19928;-80
2023/05/21 14:56:59;;;;;;;;;;;;;;;;;;5036942;28;20381;-77
2023/05/21 14:59:27;;;;;;;;;;;;;;;;;;5038706;28;19935;-79
2023/05/21 15:01:55;;;;;;;;;;;;;;;;;;5036891;28;20304;-78
2023/05/21 15:04:22;;;;;;;;;;;;;;;;;;5037158;28;20015;-79
2023/05/21 15:06:50;;;;;;;;;;;;;;;;;;5031043;28;20724;-80
2023/05/21 15:09:22;;;;;;;;;;;;;;;;;;5040763;28;19929;-76
2023/05/21 15:11:52;;;;;;;;;;;;;;;;;;5042027;28;19928;-78
2023/05/21 15:14:24;;;;;;;;;;;;;;;;;;5046132;28;20372;-79
2023/05/21 15:16:52;;;;;;;;;;;;;;;;;;5034683;28;21508;-80
2023/05/21 15:19:24;;;;;;;;;;;;;;;;;;5046178;28;19943;-79
2023/05/21 15:21:52;;;;;;;;;;;;;;;;;;5046070;28;20489;-78
2023/05/21 15:24:24;;;;;;;;;;;;;;;;;;5043621;28;20284;-77
2023/05/21 15:26:52;;;;;;;;;;;;;;;;;;5050427;28;19947;-78
2023/05/21 15:29:20;;;;;;;;;;;;;;;;;;5029011;28;19935;-79
2023/05/21 15:31:52;;;;;;;;;;;;;;;;;;5045079;28;19929;-78
2023/05/21 15:34:20;;;;;;;;;;;;;;;;;;5044249;28;19932;-79
2023/05/21 15:36:52;;;;;;;;;;;;;;;;;;5046159;28;19936;-80
2023/05/21 15:39:25;;;;;;;;;;;;;;;;;;5048132;28;19935;-79
2023/05/21 15:41:57;;;;;;;;;;;;;;;;;;5044574;28;20365;-78
2023/05/21 15:44:30;;;;;;;;;;;;;;;;;;5046578;28;19947;-80
2023/05/21 15:47:02;;;;;;;;;;;;;;;;;;5047454;28;19929;-78
2023/05/21 15:49:35;;;;;;;;;;;;;;;;;;5043534;28;20141;-79
2023/05/21 15:52:02;;;;;;;;;;;;;;;;;;5043828;28;19929;-79
2023/05/21 15:54:30;;;;;;;;;;;;;;;;;;5046498;28;20456;-78
2023/05/21 15:57:02;;;;;;;;;;;;;;;;;;5044609;28;19928;-80
2023/05/21 15:59:35;;;;;;;;;;;;;;;;;;5046169;28;19931;-78
2023/05/21 16:02:02;;;;;;;;;;;;;;;;;;5043991;28;19928;-78
2023/05/21 16:04:31;;;;;;;;;;;;;;;;;;5043125;28;20582;-79
2023/05/21 16:07:04;;;;;;;;;;;;;;;;;;5041290;28;19943;-81
2023/05/21 16:09:37;;;;;;;;;;;;;;;;;;5048636;28;19928;-79
2023/05/21 16:12:04;;;;;;;;;;;;;;;;;;5042587;28;20792;-77
2023/05/21 16:14:32;;;;;;;;;;;;;;;;;;5043888;28;20389;-81
2023/05/21 16:16:59;;;;;;;;;;;;;;;;;;5040885;28;19936;-79
2023/05/21 16:19:27;;;;;;;;;;;;;;;;;;5040766;28;19928;-79
2023/05/21 16:21:59;;;;;;;;;;;;;;;;;;5038980;28;19935;-80
2023/05/21 16:24:27;;;;;;;;;;;;;;;;;;5037959;28;19928;-80
2023/05/21 16:27:00;;;;;;;;;;;;;;;;;;5037618;28;19928;-82
2023/05/21 16:29:27;;;;;;;;;;;;;;;;;;5030500;28;19936;-78
2023/05/21 16:31:55;;;;;;;;;;;;;;;;;;5044984;28;19928;-79
2023/05/21 16:34:28;;;;;;;;;;;;;;;;;;5040069;28;19935;-78
2023/05/21 16:36:55;;;;;;;;;;;;;;;;;;5041620;28;19935;-81
2023/05/21 16:39:23;;;;;;;;;;;;;;;;;;5034694;28;19929;-80
2023/05/21 16:41:58;;;;;;;;;;;;;;;;;;5037039;28;20635;-80
2023/05/21 16:44:31;;;;;;;;;;;;;;;;;;5042412;28;19936;-79
2023/05/21 16:47:04;;;;;;;;;;;;;;;;;;5040758;28;19936;-79
2023/05/21 16:49:31;;;;;;;;;;;;;;;;;;5047348;28;19929;-77
2023/05/21 16:52:00;;;;;;;;;;;;;;;;;;5043064;28;19928;-78
2023/05/21 16:54:28;;;;;;;;;;;;;;;;;;5038830;28;19939;-79
2023/05/21 16:57:01;;;;;;;;;;;;;;;;;;5038501;28;20480;-78
2023/05/21 16:59:34;;;;;;;;;;;;;;;;;;5048095;28;19928;-79
2023/05/21 17:02:01;;;;;;;;;;;;;;;;;;5038966;28;20557;-79
2023/05/21 17:04:29;;;;;;;;;;;;;;;;;;5057150;28;19929;-78